Time;durP1;ratioP1;P1;durP2;ratioP2;P2;SDS_P1;SDS_P2;PMS_P1;PMS_P2;Temp;Humidity;BMP_temperature;BMP_pressure;BME280_temperature;BME280_humidity;BME280_pressure;Samples;Min_cycle;Max_cycle;Signal;HPM_P1;HPM_P2
2022/04/05 00:01:31;;;;;;;19.55;12.65;;;;;;;9.04;92.09;100373.84;5086097;28;20045;-68
2022/04/05 00:03:58;;;;;;;26.90;15.57;;;;;;;9.03;92.40;100362.47;5085535;28;20052;-68
2022/04/05 00:06:25;;;;;;;23.15;13.85;;;;;;;9.04;92.39;100371.22;5087135;28;20140;-67
2022/04/05 00:08:52;;;;;;;23.67;14.27;;;;;;;9.04;92.41;100379.97;5090324;28;20070;-68
2022/04/05 00:11:20;;;;;;;26.67;14.35;;;;;;;9.04;92.39;100373.84;5093543;28;20036;-68
2022/04/05 00:13:47;;;;;;;28.75;15.70;;;;;;;9.02;92.43;100376.53;5093435;28;20203;-69
2022/04/05 00:16:14;;;;;;;24.85;15.43;;;;;;;9.01;92.53;100377.44;5090769;28;20071;-69
2022/04/05 00:18:41;;;;;;;27.73;14.90;;;;;;;9.01;92.55;100380.91;5086435;28;20498;-69
2022/04/05 00:21:08;;;;;;;24.27;14.55;;;;;;;9.00;92.66;100366.03;5091256;28;20045;-66
2022/04/05 00:23:35;;;;;;;32.75;16.23;;;;;;;9.01;92.69;100372.19;5092032;28;20052;-66
2022/04/05 00:26:03;;;;;;;24.67;13.98;;;;;;;9.01;92.61;100375.66;5090726;28;20095;-67
2022/04/05 00:28:30;;;;;;;22.60;14.05;;;;;;;8.97;92.56;100387.19;5087203;28;20076;-66
2022/04/05 00:30:57;;;;;;;23.52;14.23;;;;;;;8.97;92.51;100399.47;5107187;28;20518;-66
2022/04/05 00:33:25;;;;;;;21.55;13.82;;;;;;;8.94;92.44;100403.06;5083901;28;20119;-66
2022/04/05 00:35:52;;;;;;;23.30;15.10;;;;;;;8.95;92.57;100383.75;5090393;28;20041;-68
2022/04/05 00:38:19;;;;;;;27.33;16.00;;;;;;;8.95;92.49;100382.91;5089786;28;20078;-68
2022/04/05 00:40:46;;;;;;;27.88;16.40;;;;;;;8.95;92.66;100377.66;5086523;28;20498;-67
2022/04/05 00:43:13;;;;;;;27.55;15.80;;;;;;;8.97;92.88;100383.69;5093172;28;20040;-68
2022/04/05 00:45:40;;;;;;;28.40;15.68;;;;;;;8.95;92.85;100375.84;5088157;28;20164;-68
2022/04/05 00:48:08;;;;;;;30.02;17.48;;;;;;;8.96;92.93;100390.72;5086165;28;20051;-70
2022/04/05 00:50:38;;;;;;;29.23;15.85;;;;;;;8.97;93.06;100389.81;5089838;28;20047;-69
2022/04/05 00:53:07;;;;;;;27.08;16.20;;;;;;;8.96;92.95;100384.59;5091542;28;20126;-69
2022/04/05 00:55:35;;;;;;;25.58;15.93;;;;;;;8.94;92.97;100382.03;5087988;28;20131;-69
2022/04/05 00:58:04;;;;;;;26.50;16.10;;;;;;;8.94;93.06;100391.69;5091671;28;20083;-71
2022/04/05 01:00:32;;;;;;;27.10;16.23;;;;;;;8.93;93.25;100400.47;5089413;28;20045;-68
2022/04/05 01:03:00;;;;;;;31.17;16.52;;;;;;;8.90;93.33;100390.94;5084576;28;20044;-70
2022/04/05 01:05:29;;;;;;;33.92;18.02;;;;;;;8.92;93.22;100396.13;5087603;28;20041;-69
2022/04/05 01:08:02;;;;;;;32.03;17.73;;;;;;;8.91;93.23;100397.03;5084564;28;20045;-70
2022/04/05 01:10:29;;;;;;;28.95;17.05;;;;;;;8.91;93.26;100397.03;5085771;28;20052;-70
2022/04/05 01:12:56;;;;;;;30.38;17.13;;;;;;;8.91;93.12;100389.16;5083709;28;20051;-69
2022/04/05 01:15:24;;;;;;;29.35;16.30;;;;;;;8.90;93.03;100401.44;5090265;28;20613;-69
2022/04/05 01:17:52;;;;;;;22.23;14.40;;;;;;;8.89;92.89;100396.22;5078985;28;20042;-70
2022/04/05 01:20:20;;;;;;;28.50;16.30;;;;;;;8.85;92.99;100400.72;5082182;28;20049;-69
2022/04/05 01:22:54;;;;;;;27.35;16.35;;;;;;;8.83;92.79;100387.63;5078431;28;20800;-70
2022/04/05 01:25:22;;;;;;;30.80;16.17;;;;;;;8.83;92.89;100399.88;5065584;28;20045;-69
2022/04/05 01:27:51;;;;;;;25.95;15.60;;;;;;;8.82;92.60;100398.16;5067828;28;20044;-68
2022/04/05 01:30:18;;;;;;;26.25;15.43;;;;;;;8.79;92.33;100399.13;5064015;28;20054;-68
2022/04/05 01:32:50;;;;;;;27.60;16.80;;;;;;;8.79;92.46;100403.53;5060482;28;20045;-68
2022/04/05 01:35:17;;;;;;;24.95;14.27;;;;;;;8.76;92.08;100403.63;5067874;28;20040;-68
2022/04/05 01:37:44;;;;;;;32.70;15.82;;;;;;;8.75;92.06;100412.41;5071053;28;20136;-68
2022/04/05 01:40:12;;;;;;;31.50;17.00;;;;;;;8.74;92.14;100405.44;5066590;28;20068;-68
2022/04/05 01:42:39;;;;;;;31.95;16.20;;;;;;;8.69;92.20;100406.44;5065733;28;20546;-69
2022/04/05 01:45:07;;;;;;;36.60;15.77;;;;;;;8.70;92.21;100407.28;5069451;28;20039;-67
2022/04/05 01:47:34;;;;;;;29.42;16.65;;;;;;;8.69;92.19;100408.19;5058122;28;20045;-68
2022/04/05 01:50:02;;;;;;;33.35;16.63;;;;;;;8.69;92.48;100408.19;5059280;28;20539;-68
2022/04/05 01:52:29;;;;;;;34.30;16.95;;;;;;;8.68;92.47;100420.47;5062485;28;20041;-67
2022/04/05 01:54:56;;;;;;;35.25;17.48;;;;;;;8.70;92.77;100415.16;5065040;28;20045;-67
2022/04/05 01:57:24;;;;;;;36.80;17.77;;;;;;;8.69;92.83;100419.56;5067701;28;20040;-68
2022/04/05 01:59:52;;;;;;;33.90;17.25;;;;;;;8.68;92.80;100424.84;5066650;28;20045;-69
2022/04/05 02:02:19;;;;;;;34.70;17.05;;;;;;;8.65;92.81;100420.56;5065906;28;20087;-67
2022/04/05 02:04:50;;;;;;;34.95;16.55;;;;;;;8.63;92.75;100418.88;5066821;28;20080;-66
2022/04/05 02:07:21;;;;;;;35.45;15.48;;;;;;;8.62;92.70;100425.06;5069233;28;20120;-69
2022/04/05 02:09:49;;;;;;;42.10;17.20;;;;;;;8.61;92.98;100431.22;5063733;28;20080;-66
2022/04/05 02:12:18;;;;;;;29.67;13.50;;;;;;;8.62;93.05;100428.53;5068970;28;20049;-69
2022/04/05 02:15:08;;;;;;;27.77;11.68;;;;;;;8.54;92.34;100436.66;5063841;28;20057;-69
2022/04/05 02:17:57;;;;;;;23.58;9.23;;;;;;;8.47;92.48;100428.94;5082948;28;20131;-68
2022/04/05 02:20:29;;;;;;;18.67;8.30;;;;;;;8.40;92.21;100436.13;5069471;28;20107;-69
2022/04/05 02:22:56;;;;;;;12.88;7.30;;;;;;;8.30;91.84;100437.28;5067660;28;20041;-67
2022/04/05 02:25:31;;;;;;;15.02;7.03;;;;;;;8.18;91.97;100428.84;5109119;28;20112;-68
2022/04/05 02:28:02;;;;;;;12.40;6.97;;;;;;;8.12;92.14;100431.63;5090751;28;20442;-68
2022/04/05 02:30:39;;;;;;;13.63;6.82;;;;;;;8.06;92.13;100432.66;5090081;28;20040;-68
2022/04/05 02:33:09;;;;;;;14.73;6.47;;;;;;;8.01;92.26;100433.69;5108340;28;20048;-67
2022/04/05 02:35:37;;;;;;;14.68;6.75;;;;;;;7.93;91.95;100436.50;5089347;28;20111;-68
2022/04/05 02:38:06;;;;;;;13.32;5.93;;;;;;;7.87;92.20;100437.50;5109254;28;20036;-68
2022/04/05 02:40:37;;;;;;;11.27;5.47;;;;;;;7.85;92.41;100441.09;5091442;28;20480;-68
2022/04/05 02:43:06;;;;;;;9.32;5.55;;;;;;;7.80;92.22;100441.19;5088934;28;20465;-68
2022/04/05 02:45:34;;;;;;;10.75;5.38;;;;;;;7.76;92.52;100447.41;5108950;28;20127;-68
2022/04/05 02:48:02;;;;;;;8.27;5.18;;;;;;;7.69;92.06;100443.22;5108532;28;20090;-69
2022/04/05 02:50:31;;;;;;;14.45;6.05;;;;;;;7.64;92.47;100448.59;5103671;28;20074;-69
2022/04/05 02:52:58;;;;;;;11.07;5.60;;;;;;;7.63;92.76;100446.00;5090075;28;20514;-69
2022/04/05 02:55:27;;;;;;;11.60;6.20;;;;;;;7.59;92.51;100453.06;5089083;28;20048;-68
2022/04/05 02:57:56;;;;;;;10.65;5.82;;;;;;;7.54;92.58;100445.31;5090894;28;20816;-69
2022/04/05 03:00:35;;;;;;;11.70;6.43;;;;;;;7.49;92.45;100441.94;5092783;28;20047;-69
2022/04/05 03:03:07;;;;;;;10.57;6.22;;;;;;;7.46;92.82;100445.50;5084143;28;20051;-69
2022/04/05 03:05:35;;;;;;;12.25;7.00;;;;;;;7.45;92.41;100437.66;5107328;28;20067;-69
2022/04/05 03:08:05;;;;;;;14.07;6.70;;;;;;;7.44;92.93;100439.44;5108203;28;20052;-69
2022/04/05 03:10:33;;;;;;;13.52;6.25;;;;;;;7.42;92.91;100438.59;5104428;28;20040;-69
2022/04/05 03:13:04;;;;;;;13.65;6.22;;;;;;;7.42;92.96;100441.22;5100755;28;20041;-70
2022/04/05 03:15:31;;;;;;;13.35;5.90;;;;;;;7.41;93.06;100442.13;5100952;28;20037;-69
2022/04/05 03:17:59;;;;;;;9.50;5.82;;;;;;;7.40;93.06;100442.16;5109385;28;20040;-70
2022/04/05 03:20:31;;;;;;;13.32;6.15;;;;;;;7.40;93.35;100440.41;5091425;28;20040;-68
2022/04/05 03:23:00;;;;;;;14.13;6.35;;;;;;;7.40;93.33;100445.63;5072453;28;20049;-68
2022/04/05 03:25:28;;;;;;;12.35;6.00;;;;;;;7.40;93.21;100439.53;5101334;28;20501;-67
2022/04/05 03:28:01;;;;;;;14.23;6.32;;;;;;;7.42;93.60;100443.84;5089302;28;20498;-67
2022/04/05 03:30:29;;;;;;;12.55;6.13;;;;;;;7.44;93.65;100435.94;5088599;28;20140;-69
2022/04/05 03:32:59;;;;;;;14.45;6.10;;;;;;;7.43;93.58;100445.56;5084503;28;20510;-69
2022/04/05 03:35:28;;;;;;;20.02;6.03;;;;;;;7.44;93.45;100436.81;5105786;28;20044;-67
2022/04/05 03:37:57;;;;;;;11.52;5.72;;;;;;;7.46;93.79;100432.41;5088884;28;20036;-68
2022/04/05 03:40:26;;;;;;;13.35;5.82;;;;;;;7.48;93.68;100434.13;5085161;28;20151;-67
2022/04/05 03:42:54;;;;;;;14.70;6.05;;;;;;;7.47;93.66;100441.13;5087207;28;20099;-67
2022/04/05 03:45:23;;;;;;;12.15;5.13;;;;;;;7.48;93.63;100431.50;5107604;28;20044;-69
2022/04/05 03:47:51;;;;;;;11.52;5.53;;;;;;;7.46;93.59;100424.53;5100744;28;20052;-69
2022/04/05 03:50:18;;;;;;;15.63;5.63;;;;;;;7.45;93.44;100429.78;5079434;28;20116;-69
2022/04/05 03:52:47;;;;;;;12.55;5.80;;;;;;;7.41;93.36;100430.78;5103901;28;20040;-68
2022/04/05 03:55:26;;;;;;;13.27;5.25;;;;;;;7.44;93.61;100438.56;5076873;28;20124;-69
2022/04/05 03:57:54;;;;;;;15.27;5.55;;;;;;;7.41;93.53;100436.88;5087910;28;20044;-68
2022/04/05 04:00:22;;;;;;;13.45;5.97;;;;;;;7.42;93.45;100435.97;5082208;28;20509;-68
2022/04/05 04:03:03;;;;;;;16.23;5.93;;;;;;;7.43;93.75;100429.84;5087625;28;20044;-68
2022/04/05 04:05:31;;;;;;;15.45;6.65;;;;;;;7.45;93.94;100428.06;5092001;28;20098;-71
2022/04/05 04:07:59;;;;;;;13.32;5.43;;;;;;;7.49;93.77;100428.84;5100715;28;20043;-68
2022/04/05 04:10:53;;;;;;;15.73;5.97;;;;;;;7.51;93.94;100428.78;5095119;28;20040;-69
2022/04/05 04:13:25;;;;;;;17.45;6.07;;;;;;;7.50;94.04;100421.81;5108646;28;20040;-68
2022/04/05 04:15:58;;;;;;;16.73;6.88;;;;;;;7.52;94.03;100420.03;5109325;28;20102;-68
2022/04/05 04:18:28;;;;;;;19.80;6.90;;;;;;;7.55;94.24;100418.19;5103384;28;20084;-68
2022/04/05 04:21:01;;;;;;;20.52;7.13;;;;;;;7.59;94.28;100421.59;5083476;28;20051;-68
2022/04/05 04:23:29;;;;;;;23.75;7.75;;;;;;;7.62;94.37;100418.91;5100756;28;20577;-67
2022/04/05 04:25:57;;;;;;;19.83;8.73;;;;;;;7.63;94.46;100414.53;5087919;28;20048;-68
2022/04/05 04:28:24;;;;;;;20.67;8.52;;;;;;;7.64;94.19;100417.09;5094066;28;20151;-68
2022/04/05 04:30:51;;;;;;;23.08;9.57;;;;;;;7.63;94.17;100419.78;5091088;28;20045;-70
2022/04/05 04:33:18;;;;;;;22.33;9.70;;;;;;;7.64;94.46;100416.22;5081940;28;20048;-68
2022/04/05 04:35:46;;;;;;;24.75;9.18;;;;;;;7.66;94.56;100414.44;5082657;28;20045;-69
2022/04/05 04:38:15;;;;;;;31.95;9.93;;;;;;;7.66;94.57;100410.06;5088526;28;20041;-69
2022/04/05 04:40:52;;;;;;;33.92;11.55;;;;;;;7.70;94.47;100410.84;5090962;28;20102;-68
2022/04/05 04:43:23;;;;;;;38.13;12.38;;;;;;;7.70;94.30;100410.84;5084968;28;20052;-68
2022/04/05 04:45:52;;;;;;;38.35;13.02;;;;;;;7.74;94.49;100408.09;5091350;28;20517;-68
2022/04/05 04:48:20;;;;;;;40.33;13.90;;;;;;;7.76;94.16;100408.03;5082403;28;20471;-67
2022/04/05 04:50:49;;;;;;;41.95;14.30;;;;;;;7.82;94.17;100412.28;5087624;28;20559;-67
2022/04/05 04:53:16;;;;;;;39.13;15.23;;;;;;;7.89;94.50;100416.47;5083704;28;20376;-69
2022/04/05 04:55:44;;;;;;;41.80;17.23;;;;;;;7.99;94.61;100411.84;5085060;28;20049;-69
2022/04/05 04:58:31;;;;;;;51.95;18.52;;;;;;;8.10;94.78;100420.31;5085062;28;20047;-70
2022/04/05 05:00:59;;;;;;;42.78;17.70;;;;;;;8.18;94.95;100425.34;5089617;28;20852;-69
2022/04/05 05:03:26;;;;;;;39.92;18.63;;;;;;;8.24;94.87;100420.78;5090304;28;20041;-70
2022/04/05 05:05:55;;;;;;;38.40;17.48;;;;;;;8.30;94.59;100422.38;5088197;28;20053;-70
2022/04/05 05:08:22;;;;;;;41.53;17.63;;;;;;;8.38;94.73;100424.78;5081700;28;20072;-70
2022/04/05 05:10:49;;;;;;;30.77;15.55;;;;;;;8.43;94.73;100417.66;5092560;28;20047;-70
2022/04/05 05:13:22;;;;;;;33.00;15.38;;;;;;;8.52;94.82;100421.81;5086458;28;20037;-69
2022/04/05 05:15:50;;;;;;;35.83;16.15;;;;;;;8.54;94.28;100426.13;5085113;28;20041;-69
2022/04/05 05:18:17;;;;;;;26.08;14.02;;;;;;;8.59;94.52;100427.75;5084282;28;20117;-70
2022/04/05 05:20:44;;;;;;;33.90;15.65;;;;;;;8.66;94.51;100431.91;5090243;28;20080;-70
2022/04/05 05:23:12;;;;;;;30.73;14.15;;;;;;;8.67;94.15;100425.75;5094893;28;20056;-69
2022/04/05 05:25:39;;;;;;;29.13;14.85;;;;;;;8.67;94.08;100421.38;5104534;28;20536;-70
2022/04/05 05:28:07;;;;;;;40.58;16.85;;;;;;;8.72;94.28;100426.50;5106252;28;20040;-69
2022/04/05 05:30:34;;;;;;;33.03;14.95;;;;;;;8.72;94.01;100434.38;5104375;28;20055;-69
2022/04/05 05:33:02;;;;;;;34.80;15.55;;;;;;;8.69;93.71;100421.31;5104558;28;20047;-70
2022/04/05 05:35:29;;;;;;;37.33;15.73;;;;;;;8.66;93.79;100424.91;5099526;28;20036;-69
2022/04/05 05:37:58;;;;;;;33.78;14.07;;;;;;;8.68;93.88;100441.50;5099808;28;20047;-69
2022/04/05 05:40:26;;;;;;;31.60;14.18;;;;;;;8.67;93.73;100421.38;5099963;28;20505;-68
2022/04/05 05:42:59;;;;;;;35.17;15.13;;;;;;;8.69;94.01;100429.22;5102233;28;20052;-69
2022/04/05 05:45:33;;;;;;;36.27;16.70;;;;;;;8.70;93.55;100428.31;5105721;28;20036;-69
2022/04/05 05:48:00;;;;;;;31.35;14.95;;;;;;;8.70;93.70;100430.94;5106274;28;20044;-67
2022/04/05 05:50:28;;;;;;;34.95;15.38;;;;;;;8.73;93.63;100433.50;5103076;28;20041;-67
2022/04/05 05:52:56;;;;;;;36.47;15.88;;;;;;;8.73;93.40;100435.22;5105648;28;20082;-67
2022/04/05 05:55:23;;;;;;;32.33;15.45;;;;;;;8.69;93.45;100431.84;5104480;28;20123;-67
2022/04/05 05:57:50;;;;;;;35.05;16.17;;;;;;;8.70;93.29;100437.03;5104440;28;20040;-68
2022/04/05 06:00:23;;;;;;;36.97;16.88;;;;;;;8.70;92.94;100442.28;5107289;28;20044;-68
2022/04/05 06:02:55;;;;;;;34.13;16.60;;;;;;;8.75;93.26;100442.16;5099646;28;20485;-68
2022/04/05 06:05:24;;;;;;;29.25;16.02;;;;;;;8.74;93.17;100450.97;5102933;28;20128;-69
2022/04/05 06:07:51;;;;;;;37.55;17.73;;;;;;;8.74;93.34;100450.09;5102207;28;20111;-68
2022/04/05 06:10:20;;;;;;;36.78;17.27;;;;;;;8.78;93.53;100455.22;5106726;28;20040;-67
2022/04/05 06:12:49;;;;;;;33.45;17.88;;;;;;;8.76;93.04;100448.28;5103340;28;20094;-67
2022/04/05 06:15:19;;;;;;;32.65;18.25;;;;;;;8.76;92.82;100453.56;5105320;28;20527;-68
2022/04/05 06:17:48;;;;;;;37.35;17.63;;;;;;;8.76;93.26;100450.94;5105937;28;20060;-67
2022/04/05 06:20:19;;;;;;;39.58;18.38;;;;;;;8.80;93.21;100455.19;5094730;28;20036;-68
2022/04/05 06:22:58;;;;;;;34.88;17.15;;;;;;;8.82;93.01;100454.25;5105108;27;20090;-68
2022/04/05 06:25:37;;;;;;;37.20;18.08;;;;;;;8.88;93.20;100465.47;5103139;28;20481;-68
2022/04/05 06:28:07;;;;;;;30.85;17.52;;;;;;;8.86;92.63;100460.25;5110144;28;20044;-69
2022/04/05 06:30:39;;;;;;;39.40;17.75;;;;;;;8.88;92.95;100450.56;5103515;28;20036;-69
2022/04/05 06:33:19;;;;;;;30.55;17.20;;;;;;;8.92;92.61;100464.47;5112428;28;20458;-69
2022/04/05 06:35:51;;;;;;;33.22;17.38;;;;;;;8.91;92.61;100458.34;5102878;28;20490;-69
2022/04/05 06:38:19;;;;;;;33.03;16.55;;;;;;;8.92;92.42;100473.22;5107535;28;20046;-68
2022/04/05 06:40:47;;;;;;;32.10;17.08;;;;;;;8.94;92.54;100463.53;5109061;28;20119;-69
2022/04/05 06:43:19;;;;;;;37.58;18.10;;;;;;;8.99;92.77;100473.91;5108396;28;20040;-69
2022/04/05 06:45:47;;;;;;;33.33;17.52;;;;;;;8.98;92.49;100470.44;5099088;28;20059;-68
2022/04/05 06:48:14;;;;;;;34.65;16.42;;;;;;;9.02;92.46;100471.19;5110355;27;20044;-69
2022/04/05 06:50:41;;;;;;;36.47;18.95;;;;;;;9.03;92.32;100472.91;5103407;28;20048;-68
2022/04/05 06:53:10;;;;;;;32.45;17.90;;;;;;;9.06;92.16;100472.81;5112111;28;20040;-70
2022/04/05 06:55:38;;;;;;;35.45;18.98;;;;;;;9.12;92.40;100477.91;5111779;28;20036;-68
2022/04/05 06:58:08;;;;;;;34.35;18.00;;;;;;;9.19;91.92;100477.69;5112175;28;20048;-68
2022/04/05 07:00:37;;;;;;;34.53;18.83;;;;;;;9.19;91.59;100478.59;5110802;28;20528;-67
2022/04/05 07:03:06;;;;;;;35.15;18.60;;;;;;;9.27;91.73;100487.09;5110818;28;20051;-67
2022/04/05 07:05:33;;;;;;;37.78;18.40;;;;;;;9.28;91.18;100475.66;5106536;28;20084;-68
2022/04/05 07:08:01;;;;;;;37.55;17.50;;;;;;;9.32;91.15;100484.31;5108146;28;20040;-69
2022/04/05 07:10:28;;;;;;;32.67;16.48;;;;;;;9.31;90.84;100479.97;5102516;28;20040;-68
2022/04/05 07:12:55;;;;;;;31.98;18.10;;;;;;;9.37;91.20;100481.53;5108003;28;20044;-68
2022/04/05 07:15:22;;;;;;;33.47;17.92;;;;;;;9.39;90.76;100471.84;5103025;28;20135;-68
2022/04/05 07:17:49;;;;;;;27.92;17.23;;;;;;;9.36;90.58;100491.19;5101756;28;20193;-68
2022/04/05 07:20:35;;;;;;;30.35;16.45;;;;;;;9.41;90.66;100481.41;5107263;28;20510;-65
2022/04/05 07:23:03;;;;;;;32.60;16.13;;;;;;;9.42;90.50;100485.75;5097094;28;20043;-67
2022/04/05 07:25:34;;;;;;;35.10;17.85;;;;;;;9.41;91.09;100477.94;5107988;28;20044;-67
2022/04/05 07:28:02;;;;;;;35.58;17.20;;;;;;;9.46;91.11;100478.63;5080382;28;20946;-67
2022/04/05 07:30:30;;;;;;;31.17;16.02;;;;;;;9.52;91.03;100480.19;5105760;28;20048;-68
2022/04/05 07:32:57;;;;;;;33.08;15.93;;;;;;;9.47;90.48;100481.19;5099242;28;20502;-69
2022/04/05 07:35:26;;;;;;;33.30;16.75;;;;;;;9.49;90.79;100486.44;5101845;27;20047;-67
2022/04/05 07:38:18;;;;;;;31.23;16.30;;;;;;;9.45;90.65;100479.53;5108618;28;20036;-66
2022/04/05 07:40:50;;;;;;;32.95;16.95;;;;;;;9.48;90.73;100485.56;5110324;28;20497;-67
2022/04/05 07:43:24;;;;;;;28.98;15.77;;;;;;;9.56;91.51;100485.31;5109080;28;20494;-67
2022/04/05 07:45:54;;;;;;;27.80;13.93;;;;;;;9.66;91.01;100474.50;5104637;28;20043;-68
2022/04/05 07:48:26;;;;;;;23.40;13.75;;;;;;;9.62;89.94;100479.84;5111646;28;20452;-67
2022/04/05 07:50:54;;;;;;;26.17;14.77;;;;;;;9.58;90.34;100477.38;5100119;28;20050;-67
2022/04/05 07:53:22;;;;;;;29.80;15.00;;;;;;;9.58;90.48;100482.63;5105041;28;20040;-66
2022/04/05 07:55:50;;;;;;;26.48;14.25;;;;;;;9.60;90.70;100486.09;5105167;28;20151;-67
2022/04/05 07:58:17;;;;;;;28.30;15.77;;;;;;;9.62;90.96;100489.53;5094393;28;20041;-66
2022/04/05 08:00:44;;;;;;;28.95;15.55;;;;;;;9.57;90.73;100480.91;5102596;28;20506;-66
2022/04/05 08:03:11;;;;;;;24.17;14.73;;;;;;;9.60;90.89;100491.34;5108432;28;20116;-66
2022/04/05 08:05:41;;;;;;;25.23;14.57;;;;;;;9.64;90.67;100483.31;5105477;28;20036;-66
2022/04/05 08:08:09;;;;;;;27.15;15.85;;;;;;;9.66;90.46;100488.53;5104757;28;20067;-66
2022/04/05 08:10:36;;;;;;;25.75;14.27;;;;;;;9.63;90.48;100494.72;5106491;28;20047;-65
2022/04/05 08:13:03;;;;;;;33.17;16.10;;;;;;;9.70;90.96;100495.41;5104485;28;20046;-66
2022/04/05 08:15:30;;;;;;;28.48;14.23;;;;;;;9.69;90.20;100503.38;5107035;28;20752;-67
2022/04/05 08:17:58;;;;;;;26.90;15.63;;;;;;;9.68;90.34;100489.31;5110516;28;20521;-66
2022/04/05 08:20:25;;;;;;;27.85;15.50;;;;;;;9.72;90.32;100493.59;5113095;28;20074;-67
2022/04/05 08:22:52;;;;;;;24.55;14.73;;;;;;;9.76;90.13;100496.97;5099189;28;20043;-68
2022/04/05 08:25:19;;;;;;;31.90;15.32;;;;;;;9.85;90.20;100495.84;5068900;28;20647;-67
2022/04/05 08:27:48;;;;;;;25.90;15.38;;;;;;;9.93;90.02;100493.81;5064593;28;20050;-67
2022/04/05 08:30:18;;;;;;;31.10;16.20;;;;;;;9.93;89.51;100489.38;5054385;28;20052;-66
2022/04/05 08:32:49;;;;;;;24.92;14.00;;;;;;;9.99;89.13;100500.63;5061743;28;20053;-66
2022/04/05 08:35:20;;;;;;;28.10;14.55;;;;;;;10.02;89.42;100500.53;5057345;28;20055;-66
2022/04/05 08:37:49;;;;;;;28.67;14.30;;;;;;;10.07;89.70;100501.25;5069020;28;20487;-67
2022/04/05 08:40:18;;;;;;;28.02;14.25;;;;;;;10.00;89.56;100497.09;5064799;28;20053;-67
2022/04/05 08:42:54;;;;;;;27.92;15.40;;;;;;;10.03;89.54;100492.59;5067994;28;20056;-69
2022/04/05 08:45:24;;;;;;;30.17;16.27;;;;;;;10.15;89.38;100493.94;5060540;28;20041;-66
2022/04/05 08:47:56;;;;;;;20.40;14.02;;;;;;;10.28;87.87;100502.25;5060316;28;20045;-67
2022/04/05 08:50:28;;;;;;;26.30;13.18;;;;;;;10.40;88.48;100504.50;5053847;28;20037;-66
2022/04/05 08:52:58;;;;;;;22.23;13.98;;;;;;;10.43;87.14;100507.97;5061653;28;20127;-67
2022/04/05 08:55:35;;;;;;;23.60;13.93;;;;;;;10.47;87.47;100509.59;5056990;28;20102;-66
2022/04/05 08:58:04;;;;;;;22.27;13.95;;;;;;;10.57;88.39;100508.34;5067761;28;20067;-67
2022/04/05 09:00:32;;;;;;;21.17;12.90;;;;;;;10.45;87.03;100514.03;5071570;28;20048;-67
2022/04/05 09:03:05;;;;;;;22.48;13.93;;;;;;;10.39;88.02;100505.44;5072535;28;20033;-66
2022/04/05 09:05:47;;;;;;;23.30;12.57;;;;;;;10.38;87.72;100510.75;5060751;28;20481;-66
2022/04/05 09:08:22;;;;;;;25.75;14.27;;;;;;;10.40;88.00;100508.94;5068921;28;20037;-66
2022/04/05 09:11:04;;;;;;;24.60;14.70;;;;;;;10.47;88.30;100520.97;5063252;28;20084;-66
2022/04/05 09:13:31;;;;;;;20.77;12.88;;;;;;;10.61;88.76;100524.91;5065396;28;20064;-66
2022/04/05 09:16:04;;;;;;;18.48;12.02;;;;;;;10.46;87.42;100521.03;5071325;28;20096;-68
2022/04/05 09:18:36;;;;;;;20.25;12.77;;;;;;;10.40;88.29;100508.94;5067895;28;20072;-67
2022/04/05 09:21:08;;;;;;;19.33;12.43;;;;;;;10.42;87.71;100517.66;5053239;28;20909;-67
2022/04/05 09:23:43;;;;;;;23.55;14.70;;;;;;;10.38;87.70;100511.59;5078182;28;20057;-68
2022/04/05 09:26:17;;;;;;;21.45;12.63;;;;;;;10.47;87.01;100523.63;5108699;28;20123;-67
2022/04/05 09:28:50;;;;;;;17.23;9.93;;;;;;;10.63;86.57;100520.44;5106518;28;20040;-68
2022/04/05 09:31:22;;;;;;;18.17;10.15;;;;;;;10.93;85.90;100523.75;5108778;27;20093;-67
2022/04/05 09:34:08;;;;;;;15.55;10.43;;;;;;;11.22;86.04;100515.66;5117394;27;20048;-67
2022/04/05 09:36:39;;;;;;;12.82;8.70;;;;;;;11.47;83.15;100521.69;5095948;28;20525;-68
2022/04/05 09:39:21;;;;;;;16.70;10.40;;;;;;;11.55;84.49;100520.56;5104521;28;20044;-68
2022/04/05 09:42:09;;;;;;;13.88;8.70;;;;;;;11.57;83.99;100524.84;5106103;28;20044;-67
2022/04/05 09:44:40;;;;;;;11.63;8.00;;;;;;;11.62;83.91;100529.94;5092465;28;20481;-67
2022/04/05 09:47:21;;;;;;;14.55;8.25;;;;;;;11.43;83.56;100525.38;5092433;28;20041;-66
2022/04/05 09:49:49;;;;;;;13.45;7.93;;;;;;;11.36;85.05;100525.69;5100467;28;20106;-67
2022/04/05 09:52:33;;;;;;;12.98;8.88;;;;;;;11.20;86.25;100531.53;5099598;28;20043;-67
2022/04/05 09:55:14;;;;;;;19.13;10.03;;;;;;;11.10;85.02;100531.03;5112928;28;20036;-65
2022/04/05 09:57:43;;;;;;;17.73;9.70;;;;;;;11.09;86.33;100531.09;5104897;27;20264;-67
2022/04/05 10:00:15;;;;;;;14.15;8.70;;;;;;;11.20;86.70;100531.53;5108691;28;20032;-67
2022/04/05 10:03:10;;;;;;;17.70;8.50;;;;;;;11.40;86.81;100524.63;5102768;28;20798;-67
2022/04/05 10:05:39;;;;;;;13.07;8.10;;;;;;;11.43;85.86;100522.75;5101819;28;20040;-66
2022/04/05 10:08:06;;;;;;;15.45;8.43;;;;;;;11.44;86.01;100531.50;5105535;28;20040;-67
2022/04/05 10:10:33;;;;;;;11.02;7.00;;;;;;;11.42;84.39;100520.16;5094870;28;20798;-66
2022/04/05 10:13:02;;;;;;;11.73;7.95;;;;;;;11.55;85.68;100534.59;5103648;28;20540;-67
2022/04/05 10:15:29;;;;;;;11.02;6.95;;;;;;;11.65;83.60;100524.53;5097153;28;20514;-67
2022/04/05 10:17:58;;;;;;;11.80;7.03;;;;;;;11.74;83.32;100521.53;5108658;28;20048;-67
2022/04/05 10:20:27;;;;;;;12.18;7.75;;;;;;;11.84;82.41;100532.56;5103451;28;20064;-67
2022/04/05 10:22:58;;;;;;;13.25;8.18;;;;;;;11.86;83.07;100540.44;5108399;28;20062;-67
2022/04/05 10:25:29;;;;;;;10.35;7.28;;;;;;;11.50;82.16;100540.06;5105868;28;20514;-68
2022/04/05 10:27:58;;;;;;;16.20;8.95;;;;;;;11.21;84.01;100535.03;5110267;28;20553;-67
2022/04/05 10:30:40;;;;;;;15.10;8.60;;;;;;;11.04;85.41;100541.78;5112402;28;20071;-68
2022/04/05 10:33:30;;;;;;;12.40;7.93;;;;;;;10.86;85.54;100546.84;5108634;28;20044;-68
2022/04/05 10:36:00;;;;;;;12.88;7.97;;;;;;;10.97;86.00;100546.47;5101719;28;20123;-68
2022/04/05 10:38:29;;;;;;;7.68;6.38;;;;;;;11.01;85.51;100539.28;5105028;28;20054;-68
2022/04/05 10:41:23;;;;;;;12.63;7.47;;;;;;;11.01;86.33;100540.13;5102679;28;20461;-68
2022/04/05 10:44:24;;;;;;;9.93;7.53;;;;;;;11.00;86.55;100543.69;5105183;28;20102;-67
2022/04/05 10:46:58;;;;;;;10.65;7.35;;;;;;;11.05;85.82;100543.50;5095580;28;20098;-68
2022/04/05 10:49:49;;;;;;;12.43;7.80;;;;;;;10.95;85.64;100545.66;5106568;28;20064;-68
2022/04/05 10:52:35;;;;;;;9.43;7.20;;;;;;;10.90;84.84;100549.38;5111605;28;20578;-68
2022/04/05 10:55:04;;;;;;;13.27;7.97;;;;;;;10.86;86.42;100552.09;5104628;28;20044;-67
2022/04/05 10:57:35;;;;;;;17.15;9.25;;;;;;;10.79;85.87;100536.56;5110326;28;20046;-66
2022/04/05 11:00:23;;;;;;;14.82;9.07;;;;;;;10.86;86.69;100546.00;5110088;27;20040;-66
2022/04/05 11:02:53;;;;;;;11.27;8.73;;;;;;;11.01;86.93;100544.56;5100990;28;20521;-66
2022/04/05 11:05:24;;;;;;;11.05;8.10;;;;;;;11.00;85.38;100545.47;5111220;28;20046;-68
2022/04/05 11:07:51;;;;;;;12.23;7.65;;;;;;;10.80;86.07;100535.63;5105867;28;20513;-66
2022/04/05 11:10:25;;;;;;;13.45;8.75;;;;;;;10.73;87.06;100542.94;5107440;27;20352;-67
2022/04/05 11:13:16;;;;;;;14.77;8.82;;;;;;;10.61;86.21;100540.72;5114381;28;20538;-67
2022/04/05 11:15:51;;;;;;;16.80;10.18;;;;;;;10.63;87.15;100549.44;5096993;28;20579;-66
2022/04/05 11:18:21;;;;;;;13.77;9.77;;;;;;;10.57;87.16;100543.47;5110168;28;20115;-68
2022/04/05 11:20:54;;;;;;;12.82;9.43;;;;;;;10.46;87.56;100545.59;5104808;28;20097;-68
2022/04/05 11:23:40;;;;;;;18.13;10.20;;;;;;;10.45;87.64;100550.94;5108618;28;20064;-68
2022/04/05 11:26:31;;;;;;;16.65;9.55;;;;;;;10.44;87.59;100543.94;5103891;28;20048;-68
2022/04/05 11:29:01;;;;;;;12.77;8.63;;;;;;;10.59;87.90;100545.19;5115225;28;20040;-68
2022/04/05 11:31:28;;;;;;;16.27;10.45;;;;;;;10.65;87.68;100547.59;5109162;28;20033;-68
2022/04/05 11:33:55;;;;;;;12.38;9.15;;;;;;;10.69;86.86;100541.31;5097757;28;20058;-69
2022/04/05 11:36:25;;;;;;;14.77;9.75;;;;;;;10.77;87.46;100549.81;5102559;28;20040;-68